KRNH/RNH METAR and TAF weather

Enter ICAO airport designator
Station Type Date Time Source
KRNH METAR 2021/08/05 04:35 UTC NOAA

KRNH 050435Z AUTO 16003KT 10SM CLR 21/14 A3003 RMK AO2 T02130143


Station Type Date Time Source
KRNH Decoded METAR 2021/08/05 04:35 UTC NOAA

New Richmond, New Richmond Municipal Airport, WI, United States (KRNH) 45-08-54N 092-32-17W
Aug 05, 2021 - 12:35 AM EDT / 2021.08.05 0435 UTC
Wind: from the SSE (160 degrees) at 3 MPH (3 KT):0
Visibility: 10 mile(s):0
Sky conditions: clear
Temperature: 70.3 F (21.3 C)
Dew Point: 57.7 F (14.3 C)
Relative Humidity: 64%
Pressure (altimeter): 30.03 in. Hg (1016 hPa)
ob: KRNH 050435Z AUTO 16003KT 10SM CLR 21/14 A3003 RMK AO2 T02130143
cycle: 4

Station Type Date Time Source
KRNH TAF 2021/08/04 22:03 UTC NOAA

TAF
AMD KRNH 042201Z 0422/0518 18006KT P6SM SCT200
FM051000 18007KT P6SM BKN100
TEMPO 0512/0515 P6SM -SHRA OVC090
FM051500 19009KT P6SM OVC050
TEMPO 0515/0518 P6SM -SHRA OVC050

Example: see airport list